sensor_id;sensor_type;location;lat;lon;timestamp;P1;durP1;ratioP1;P2;durP2;ratioP2
3341;SDS011;1684;50.748;6.154;2024-01-30T00:01:39;14.03;;;8.80;;
3341;SDS011;1684;50.748;6.154;2024-01-30T00:04:08;13.40;;;8.60;;
3341;SDS011;1684;50.748;6.154;2024-01-30T00:06:37;13.50;;;8.17;;
3341;SDS011;1684;50.748;6.154;2024-01-30T00:09:06;11.23;;;7.80;;
3341;SDS011;1684;50.748;6.154;2024-01-30T00:11:35;12.70;;;8.30;;
3341;SDS011;1684;50.748;6.154;2024-01-30T00:14:03;12.13;;;7.23;;
3341;SDS011;1684;50.748;6.154;2024-01-30T00:16:32;13.00;;;7.63;;
3341;SDS011;1684;50.748;6.154;2024-01-30T00:19:00;18.57;;;7.57;;
3341;SDS011;1684;50.748;6.154;2024-01-30T00:21:29;10.20;;;7.80;;
3341;SDS011;1684;50.748;6.154;2024-01-30T00:23:58;12.70;;;8.10;;
3341;SDS011;1684;50.748;6.154;2024-01-30T00:26:27;10.53;;;7.40;;
3341;SDS011;1684;50.748;6.154;2024-01-30T00:28:55;11.27;;;8.77;;
3341;SDS011;1684;50.748;6.154;2024-01-30T00:31:23;17.20;;;7.97;;
3341;SDS011;1684;50.748;6.154;2024-01-30T00:33:51;13.10;;;8.40;;
3341;SDS011;1684;50.748;6.154;2024-01-30T00:36:20;12.10;;;7.00;;
3341;SDS011;1684;50.748;6.154;2024-01-30T00:38:48;11.20;;;6.90;;
3341;SDS011;1684;50.748;6.154;2024-01-30T00:41:18;12.33;;;7.00;;
3341;SDS011;1684;50.748;6.154;2024-01-30T00:43:46;10.70;;;6.60;;
3341;SDS011;1684;50.748;6.154;2024-01-30T00:46:15;10.57;;;7.13;;
3341;SDS011;1684;50.748;6.154;2024-01-30T00:48:43;12.70;;;6.90;;
3341;SDS011;1684;50.748;6.154;2024-01-30T00:51:11;12.10;;;6.87;;
3341;SDS011;1684;50.748;6.154;2024-01-30T00:53:40;10.80;;;7.30;;
3341;SDS011;1684;50.748;6.154;2024-01-30T00:56:08;11.47;;;6.73;;
3341;SDS011;1684;50.748;6.154;2024-01-30T00:58:38;8.03;;;6.30;;
3341;SDS011;1684;50.748;6.154;2024-01-30T01:01:06;8.97;;;5.53;;
3341;SDS011;1684;50.748;6.154;2024-01-30T01:03:35;13.37;;;6.47;;
3341;SDS011;1684;50.748;6.154;2024-01-30T01:06:04;8.80;;;5.90;;
3341;SDS011;1684;50.748;6.154;2024-01-30T01:08:35;10.43;;;6.20;;
3341;SDS011;1684;50.748;6.154;2024-01-30T01:11:03;9.30;;;6.47;;
3341;SDS011;1684;50.748;6.154;2024-01-30T01:13:32;13.67;;;6.70;;
3341;SDS011;1684;50.748;6.154;2024-01-30T01:16:01;12.80;;;5.07;;
3341;SDS011;1684;50.748;6.154;2024-01-30T01:18:30;7.80;;;5.17;;
3341;SDS011;1684;50.748;6.154;2024-01-30T01:20:58;10.53;;;5.90;;
3341;SDS011;1684;50.748;6.154;2024-01-30T01:23:27;9.90;;;5.53;;
3341;SDS011;1684;50.748;6.154;2024-01-30T01:25:55;8.20;;;5.80;;
3341;SDS011;1684;50.748;6.154;2024-01-30T01:28:27;9.00;;;5.57;;
3341;SDS011;1684;50.748;6.154;2024-01-30T01:30:55;10.00;;;5.30;;
3341;SDS011;1684;50.748;6.154;2024-01-30T01:33:32;10.50;;;6.30;;
3341;SDS011;1684;50.748;6.154;2024-01-30T01:36:02;11.90;;;5.30;;
3341;SDS011;1684;50.748;6.154;2024-01-30T01:38:30;10.50;;;6.07;;
3341;SDS011;1684;50.748;6.154;2024-01-30T01:41:04;7.73;;;5.37;;
3341;SDS011;1684;50.748;6.154;2024-01-30T01:43:32;12.00;;;6.30;;
3341;SDS011;1684;50.748;6.154;2024-01-30T01:46:00;12.37;;;6.07;;
3341;SDS011;1684;50.748;6.154;2024-01-30T01:48:29;8.83;;;6.07;;
3341;SDS011;1684;50.748;6.154;2024-01-30T01:50:58;8.80;;;5.50;;
3341;SDS011;1684;50.748;6.154;2024-01-30T01:53:27;8.93;;;5.53;;
3341;SDS011;1684;50.748;6.154;2024-01-30T01:55:55;11.60;;;6.00;;
3341;SDS011;1684;50.748;6.154;2024-01-30T01:58:24;11.90;;;6.33;;
3341;SDS011;1684;50.748;6.154;2024-01-30T02:00:55;7.87;;;5.10;;
3341;SDS011;1684;50.748;6.154;2024-01-30T02:03:24;8.50;;;5.63;;
3341;SDS011;1684;50.748;6.154;2024-01-30T02:05:52;9.67;;;5.50;;
3341;SDS011;1684;50.748;6.154;2024-01-30T02:08:22;8.67;;;5.43;;
3341;SDS011;1684;50.748;6.154;2024-01-30T02:10:51;9.07;;;6.10;;
3341;SDS011;1684;50.748;6.154;2024-01-30T02:13:20;8.47;;;4.90;;
3341;SDS011;1684;50.748;6.154;2024-01-30T02:15:49;8.97;;;5.80;;
3341;SDS011;1684;50.748;6.154;2024-01-30T02:18:19;7.20;;;4.93;;
3341;SDS011;1684;50.748;6.154;2024-01-30T02:20:47;10.53;;;5.80;;
3341;SDS011;1684;50.748;6.154;2024-01-30T02:23:17;10.37;;;5.90;;
3341;SDS011;1684;50.748;6.154;2024-01-30T02:25:47;9.13;;;5.23;;
3341;SDS011;1684;50.748;6.154;2024-01-30T02:28:15;10.73;;;6.07;;
3341;SDS011;1684;50.748;6.154;2024-01-30T02:30:44;10.00;;;5.93;;
3341;SDS011;1684;50.748;6.154;2024-01-30T02:33:12;9.40;;;5.33;;
3341;SDS011;1684;50.748;6.154;2024-01-30T02:35:41;13.13;;;6.00;;
3341;SDS011;1684;50.748;6.154;2024-01-30T02:38:09;9.30;;;5.40;;
3341;SDS011;1684;50.748;6.154;2024-01-30T02:40:39;9.40;;;5.97;;
3341;SDS011;1684;50.748;6.154;2024-01-30T02:43:07;8.70;;;5.90;;
3341;SDS011;1684;50.748;6.154;2024-01-30T02:45:35;9.17;;;5.13;;
3341;SDS011;1684;50.748;6.154;2024-01-30T02:48:04;8.40;;;5.70;;
3341;SDS011;1684;50.748;6.154;2024-01-30T02:50:32;9.70;;;5.73;;
3341;SDS011;1684;50.748;6.154;2024-01-30T02:53:00;7.80;;;5.23;;
3341;SDS011;1684;50.748;6.154;2024-01-30T02:55:29;8.63;;;5.97;;
3341;SDS011;1684;50.748;6.154;2024-01-30T02:57:58;10.80;;;6.00;;
3341;SDS011;1684;50.748;6.154;2024-01-30T03:00:27;7.53;;;4.20;;
3341;SDS011;1684;50.748;6.154;2024-01-30T03:02:55;10.23;;;5.00;;
3341;SDS011;1684;50.748;6.154;2024-01-30T03:05:23;9.20;;;5.57;;
3341;SDS011;1684;50.748;6.154;2024-01-30T03:07:51;10.50;;;6.10;;
3341;SDS011;1684;50.748;6.154;2024-01-30T03:10:20;7.40;;;5.33;;
3341;SDS011;1684;50.748;6.154;2024-01-30T03:12:48;9.67;;;5.83;;
3341;SDS011;1684;50.748;6.154;2024-01-30T03:15:18;12.00;;;5.50;;
3341;SDS011;1684;50.748;6.154;2024-01-30T03:17:46;11.33;;;5.07;;
3341;SDS011;1684;50.748;6.154;2024-01-30T03:20:15;9.70;;;5.33;;
3341;SDS011;1684;50.748;6.154;2024-01-30T03:22:43;9.00;;;5.13;;
3341;SDS011;1684;50.748;6.154;2024-01-30T03:25:11;7.63;;;4.63;;
3341;SDS011;1684;50.748;6.154;2024-01-30T03:27:40;11.87;;;5.20;;
3341;SDS011;1684;50.748;6.154;2024-01-30T03:30:08;11.17;;;5.77;;
3341;SDS011;1684;50.748;6.154;2024-01-30T03:32:38;10.00;;;5.40;;
3341;SDS011;1684;50.748;6.154;2024-01-30T03:35:08;9.10;;;4.93;;
3341;SDS011;1684;50.748;6.154;2024-01-30T03:37:37;7.10;;;4.20;;
3341;SDS011;1684;50.748;6.154;2024-01-30T03:40:05;8.83;;;5.83;;
3341;SDS011;1684;50.748;6.154;2024-01-30T03:42:34;7.87;;;5.07;;
3341;SDS011;1684;50.748;6.154;2024-01-30T03:45:02;8.10;;;5.37;;
3341;SDS011;1684;50.748;6.154;2024-01-30T03:47:31;11.30;;;5.90;;
3341;SDS011;1684;50.748;6.154;2024-01-30T03:50:00;9.83;;;5.30;;
3341;SDS011;1684;50.748;6.154;2024-01-30T03:52:28;10.60;;;5.30;;
3341;SDS011;1684;50.748;6.154;2024-01-30T03:54:57;9.30;;;6.43;;
3341;SDS011;1684;50.748;6.154;2024-01-30T03:57:26;9.93;;;5.67;;
3341;SDS011;1684;50.748;6.154;2024-01-30T03:59:54;6.47;;;4.67;;
3341;SDS011;1684;50.748;6.154;2024-01-30T04:02:26;8.00;;;5.33;;
3341;SDS011;1684;50.748;6.154;2024-01-30T04:04:54;7.80;;;5.33;;
3341;SDS011;1684;50.748;6.154;2024-01-30T04:07:24;11.50;;;5.50;;
3341;SDS011;1684;50.748;6.154;2024-01-30T04:09:52;7.30;;;4.43;;
3341;SDS011;1684;50.748;6.154;2024-01-30T04:12:21;8.10;;;5.43;;
3341;SDS011;1684;50.748;6.154;2024-01-30T04:14:49;8.50;;;5.60;;
3341;SDS011;1684;50.748;6.154;2024-01-30T04:17:17;9.60;;;6.20;;
3341;SDS011;1684;50.748;6.154;2024-01-30T04:19:45;8.00;;;4.93;;
3341;SDS011;1684;50.748;6.154;2024-01-30T04:22:14;10.93;;;6.47;;
3341;SDS011;1684;50.748;6.154;2024-01-30T04:24:43;10.13;;;6.00;;
3341;SDS011;1684;50.748;6.154;2024-01-30T04:27:11;8.03;;;5.30;;
3341;SDS011;1684;50.748;6.154;2024-01-30T04:29:40;9.40;;;6.60;;
3341;SDS011;1684;50.748;6.154;2024-01-30T04:32:08;8.33;;;5.27;;
3341;SDS011;1684;50.748;6.154;2024-01-30T04:34:36;10.17;;;6.03;;
3341;SDS011;1684;50.748;6.154;2024-01-30T04:37:05;11.33;;;6.50;;
3341;SDS011;1684;50.748;6.154;2024-01-30T04:39:34;13.83;;;5.60;;
3341;SDS011;1684;50.748;6.154;2024-01-30T04:42:05;12.60;;;6.20;;
3341;SDS011;1684;50.748;6.154;2024-01-30T04:44:35;8.57;;;5.27;;
3341;SDS011;1684;50.748;6.154;2024-01-30T04:47:03;8.97;;;5.07;;
3341;SDS011;1684;50.748;6.154;2024-01-30T04:49:36;9.60;;;5.53;;
3341;SDS011;1684;50.748;6.154;2024-01-30T04:52:05;8.13;;;4.87;;
3341;SDS011;1684;50.748;6.154;2024-01-30T04:54:34;10.20;;;5.83;;
3341;SDS011;1684;50.748;6.154;2024-01-30T04:57:02;8.33;;;5.40;;
3341;SDS011;1684;50.748;6.154;2024-01-30T04:59:33;8.50;;;5.30;;
3341;SDS011;1684;50.748;6.154;2024-01-30T05:02:01;9.70;;;5.60;;
3341;SDS011;1684;50.748;6.154;2024-01-30T05:04:30;8.87;;;5.47;;
3341;SDS011;1684;50.748;6.154;2024-01-30T05:06:58;13.97;;;6.77;;
3341;SDS011;1684;50.748;6.154;2024-01-30T05:09:26;9.90;;;5.70;;
3341;SDS011;1684;50.748;6.154;2024-01-30T05:11:55;13.20;;;7.33;;
3341;SDS011;1684;50.748;6.154;2024-01-30T05:14:24;11.67;;;6.97;;
3341;SDS011;1684;50.748;6.154;2024-01-30T05:16:57;10.83;;;6.80;;
3341;SDS011;1684;50.748;6.154;2024-01-30T05:19:25;9.73;;;5.60;;
3341;SDS011;1684;50.748;6.154;2024-01-30T05:21:53;10.40;;;6.47;;
3341;SDS011;1684;50.748;6.154;2024-01-30T05:24:22;12.83;;;6.97;;
3341;SDS011;1684;50.748;6.154;2024-01-30T05:26:53;11.50;;;7.00;;
3341;SDS011;1684;50.748;6.154;2024-01-30T05:29:21;12.40;;;7.07;;
3341;SDS011;1684;50.748;6.154;2024-01-30T05:31:50;10.27;;;5.90;;
3341;SDS011;1684;50.748;6.154;2024-01-30T05:34:20;11.60;;;6.20;;
3341;SDS011;1684;50.748;6.154;2024-01-30T05:36:48;8.57;;;6.10;;
3341;SDS011;1684;50.748;6.154;2024-01-30T05:39:17;10.30;;;6.43;;
3341;SDS011;1684;50.748;6.154;2024-01-30T05:41:45;18.40;;;7.10;;
3341;SDS011;1684;50.748;6.154;2024-01-30T05:44:13;10.33;;;5.70;;
3341;SDS011;1684;50.748;6.154;2024-01-30T05:46:42;9.60;;;5.77;;
3341;SDS011;1684;50.748;6.154;2024-01-30T05:49:10;11.03;;;6.13;;
3341;SDS011;1684;50.748;6.154;2024-01-30T05:51:40;12.43;;;7.30;;
3341;SDS011;1684;50.748;6.154;2024-01-30T05:54:08;10.30;;;5.87;;
3341;SDS011;1684;50.748;6.154;2024-01-30T05:56:39;10.47;;;6.07;;
3341;SDS011;1684;50.748;6.154;2024-01-30T05:59:08;10.93;;;6.33;;
3341;SDS011;1684;50.748;6.154;2024-01-30T06:01:36;10.07;;;6.13;;
3341;SDS011;1684;50.748;6.154;2024-01-30T06:04:04;11.00;;;6.70;;
3341;SDS011;1684;50.748;6.154;2024-01-30T06:06:33;12.30;;;7.13;;
3341;SDS011;1684;50.748;6.154;2024-01-30T06:09:02;12.63;;;7.10;;
3341;SDS011;1684;50.748;6.154;2024-01-30T06:11:30;12.40;;;6.73;;
3341;SDS011;1684;50.748;6.154;2024-01-30T06:13:59;12.10;;;5.90;;
3341;SDS011;1684;50.748;6.154;2024-01-30T06:16:28;11.03;;;7.27;;
3341;SDS011;1684;50.748;6.154;2024-01-30T06:18:56;11.23;;;6.50;;
3341;SDS011;1684;50.748;6.154;2024-01-30T06:21:25;10.67;;;6.60;;
3341;SDS011;1684;50.748;6.154;2024-01-30T06:23:54;11.03;;;7.13;;
3341;SDS011;1684;50.748;6.154;2024-01-30T06:26:23;10.30;;;6.80;;
3341;SDS011;1684;50.748;6.154;2024-01-30T06:28:51;11.23;;;7.37;;
3341;SDS011;1684;50.748;6.154;2024-01-30T06:31:20;10.80;;;7.27;;
3341;SDS011;1684;50.748;6.154;2024-01-30T06:33:48;11.18;;;7.30;;
3341;SDS011;1684;50.748;6.154;2024-01-30T06:36:17;13.40;;;8.07;;
3341;SDS011;1684;50.748;6.154;2024-01-30T06:38:45;14.20;;;7.53;;
3341;SDS011;1684;50.748;6.154;2024-01-30T06:41:14;11.40;;;7.30;;
3341;SDS011;1684;50.748;6.154;2024-01-30T06:43:43;19.23;;;7.67;;
3341;SDS011;1684;50.748;6.154;2024-01-30T06:46:12;18.33;;;6.80;;
3341;SDS011;1684;50.748;6.154;2024-01-30T06:48:40;14.13;;;6.97;;
3341;SDS011;1684;50.748;6.154;2024-01-30T06:51:11;9.97;;;6.90;;
3341;SDS011;1684;50.748;6.154;2024-01-30T06:53:43;10.87;;;6.70;;
3341;SDS011;1684;50.748;6.154;2024-01-30T06:56:11;9.40;;;6.10;;
3341;SDS011;1684;50.748;6.154;2024-01-30T06:58:39;12.17;;;7.77;;
3341;SDS011;1684;50.748;6.154;2024-01-30T07:01:09;13.47;;;6.60;;
3341;SDS011;1684;50.748;6.154;2024-01-30T07:03:38;10.33;;;6.57;;
3341;SDS011;1684;50.748;6.154;2024-01-30T07:06:06;12.43;;;6.43;;
3341;SDS011;1684;50.748;6.154;2024-01-30T07:08:34;12.50;;;6.40;;
3341;SDS011;1684;50.748;6.154;2024-01-30T07:11:03;14.47;;;7.20;;
3341;SDS011;1684;50.748;6.154;2024-01-30T07:13:31;11.70;;;6.77;;
3341;SDS011;1684;50.748;6.154;2024-01-30T07:16:00;11.70;;;6.60;;
3341;SDS011;1684;50.748;6.154;2024-01-30T07:18:29;11.90;;;6.97;;
3341;SDS011;1684;50.748;6.154;2024-01-30T07:20:58;10.37;;;6.10;;
3341;SDS011;1684;50.748;6.154;2024-01-30T07:23:26;9.60;;;6.23;;
3341;SDS011;1684;50.748;6.154;2024-01-30T07:25:55;10.80;;;6.27;;
3341;SDS011;1684;50.748;6.154;2024-01-30T07:28:24;11.93;;;7.60;;
3341;SDS011;1684;50.748;6.154;2024-01-30T07:30:52;11.57;;;6.67;;
3341;SDS011;1684;50.748;6.154;2024-01-30T07:33:20;10.50;;;6.43;;
3341;SDS011;1684;50.748;6.154;2024-01-30T07:35:51;13.53;;;6.93;;
3341;SDS011;1684;50.748;6.154;2024-01-30T07:38:19;11.40;;;7.30;;
3341;SDS011;1684;50.748;6.154;2024-01-30T07:40:48;10.20;;;6.97;;
3341;SDS011;1684;50.748;6.154;2024-01-30T07:43:16;11.00;;;7.30;;
3341;SDS011;1684;50.748;6.154;2024-01-30T07:45:46;14.10;;;7.93;;
3341;SDS011;1684;50.748;6.154;2024-01-30T07:48:14;10.17;;;7.00;;
3341;SDS011;1684;50.748;6.154;2024-01-30T07:50:43;17.13;;;7.67;;
3341;SDS011;1684;50.748;6.154;2024-01-30T07:53:12;12.93;;;8.97;;
3341;SDS011;1684;50.748;6.154;2024-01-30T07:55:41;14.87;;;7.30;;
3341;SDS011;1684;50.748;6.154;2024-01-30T07:58:12;10.57;;;7.50;;
3341;SDS011;1684;50.748;6.154;2024-01-30T08:00:41;11.63;;;7.50;;
3341;SDS011;1684;50.748;6.154;2024-01-30T08:03:09;11.93;;;6.83;;
3341;SDS011;1684;50.748;6.154;2024-01-30T08:05:37;11.73;;;7.60;;
3341;SDS011;1684;50.748;6.154;2024-01-30T08:08:06;18.23;;;8.40;;
3341;SDS011;1684;50.748;6.154;2024-01-30T08:10:36;20.20;;;8.47;;
3341;SDS011;1684;50.748;6.154;2024-01-30T08:13:04;10.70;;;6.83;;
3341;SDS011;1684;50.748;6.154;2024-01-30T08:15:32;12.40;;;7.83;;
3341;SDS011;1684;50.748;6.154;2024-01-30T08:18:00;15.50;;;8.93;;
3341;SDS011;1684;50.748;6.154;2024-01-30T08:20:29;13.20;;;8.53;;
3341;SDS011;1684;50.748;6.154;2024-01-30T08:22:57;17.40;;;8.60;;
3341;SDS011;1684;50.748;6.154;2024-01-30T08:25:26;19.47;;;9.30;;
3341;SDS011;1684;50.748;6.154;2024-01-30T08:27:56;14.47;;;8.67;;
3341;SDS011;1684;50.748;6.154;2024-01-30T08:30:25;12.73;;;8.40;;
3341;SDS011;1684;50.748;6.154;2024-01-30T08:32:53;16.67;;;7.87;;
3341;SDS011;1684;50.748;6.154;2024-01-30T08:35:21;12.60;;;7.10;;
3341;SDS011;1684;50.748;6.154;2024-01-30T08:37:50;17.43;;;8.27;;
3341;SDS011;1684;50.748;6.154;2024-01-30T08:40:20;14.87;;;8.40;;
3341;SDS011;1684;50.748;6.154;2024-01-30T08:42:48;10.83;;;7.70;;
3341;SDS011;1684;50.748;6.154;2024-01-30T08:45:18;10.80;;;7.50;;
3341;SDS011;1684;50.748;6.154;2024-01-30T08:47:46;18.10;;;8.90;;
3341;SDS011;1684;50.748;6.154;2024-01-30T08:50:15;11.80;;;8.03;;
3341;SDS011;1684;50.748;6.154;2024-01-30T08:52:43;12.13;;;8.33;;
3341;SDS011;1684;50.748;6.154;2024-01-30T08:55:13;14.10;;;9.50;;
3341;SDS011;1684;50.748;6.154;2024-01-30T08:57:41;11.97;;;7.40;;
3341;SDS011;1684;50.748;6.154;2024-01-30T09:00:10;15.60;;;8.47;;
3341;SDS011;1684;50.748;6.154;2024-01-30T09:02:40;14.97;;;8.20;;
3341;SDS011;1684;50.748;6.154;2024-01-30T09:05:09;18.63;;;8.13;;
3341;SDS011;1684;50.748;6.154;2024-01-30T09:07:37;13.30;;;7.60;;
3341;SDS011;1684;50.748;6.154;2024-01-30T09:10:06;14.43;;;7.03;;
3341;SDS011;1684;50.748;6.154;2024-01-30T09:12:39;10.40;;;7.10;;
3341;SDS011;1684;50.748;6.154;2024-01-30T09:15:08;11.23;;;6.20;;
3341;SDS011;1684;50.748;6.154;2024-01-30T09:17:35;11.97;;;7.03;;
3341;SDS011;1684;50.748;6.154;2024-01-30T09:20:05;13.50;;;8.13;;
3341;SDS011;1684;50.748;6.154;2024-01-30T09:22:35;12.43;;;6.10;;
3341;SDS011;1684;50.748;6.154;2024-01-30T09:25:03;13.70;;;7.23;;
3341;SDS011;1684;50.748;6.154;2024-01-30T09:27:32;10.63;;;6.30;;
3341;SDS011;1684;50.748;6.154;2024-01-30T09:30:00;20.97;;;7.60;;
3341;SDS011;1684;50.748;6.154;2024-01-30T09:32:29;12.50;;;6.37;;
3341;SDS011;1684;50.748;6.154;2024-01-30T09:34:57;14.07;;;7.00;;
3341;SDS011;1684;50.748;6.154;2024-01-30T09:37:27;12.83;;;7.30;;
3341;SDS011;1684;50.748;6.154;2024-01-30T09:39:56;12.23;;;6.60;;
3341;SDS011;1684;50.748;6.154;2024-01-30T09:42:26;13.80;;;7.90;;
3341;SDS011;1684;50.748;6.154;2024-01-30T09:44:56;14.20;;;6.90;;
3341;SDS011;1684;50.748;6.154;2024-01-30T09:47:24;13.17;;;7.60;;
3341;SDS011;1684;50.748;6.154;2024-01-30T09:49:52;14.17;;;7.77;;
3341;SDS011;1684;50.748;6.154;2024-01-30T09:52:21;19.27;;;8.10;;
3341;SDS011;1684;50.748;6.154;2024-01-30T09:54:50;15.10;;;6.20;;
3341;SDS011;1684;50.748;6.154;2024-01-30T09:57:19;12.73;;;7.20;;
3341;SDS011;1684;50.748;6.154;2024-01-30T09:59:48;14.67;;;7.50;;
3341;SDS011;1684;50.748;6.154;2024-01-30T10:02:18;14.70;;;6.57;;
3341;SDS011;1684;50.748;6.154;2024-01-30T10:04:47;11.13;;;7.00;;
3341;SDS011;1684;50.748;6.154;2024-01-30T10:07:16;11.83;;;5.93;;
3341;SDS011;1684;50.748;6.154;2024-01-30T10:09:44;13.60;;;7.63;;
3341;SDS011;1684;50.748;6.154;2024-01-30T10:12:15;13.50;;;8.17;;
3341;SDS011;1684;50.748;6.154;2024-01-30T10:14:43;11.53;;;7.13;;
3341;SDS011;1684;50.748;6.154;2024-01-30T10:17:12;18.33;;;8.13;;
3341;SDS011;1684;50.748;6.154;2024-01-30T10:19:53;11.63;;;7.10;;
3341;SDS011;1684;50.748;6.154;2024-01-30T10:22:22;18.33;;;8.70;;
3341;SDS011;1684;50.748;6.154;2024-01-30T10:24:50;12.17;;;6.90;;
3341;SDS011;1684;50.748;6.154;2024-01-30T10:27:24;15.10;;;7.33;;
3341;SDS011;1684;50.748;6.154;2024-01-30T10:29:54;12.67;;;7.43;;
3341;SDS011;1684;50.748;6.154;2024-01-30T10:32:22;10.77;;;7.63;;
3341;SDS011;1684;50.748;6.154;2024-01-30T10:34:50;15.77;;;7.60;;
3341;SDS011;1684;50.748;6.154;2024-01-30T10:37:17;16.17;;;8.80;;
3341;SDS011;1684;50.748;6.154;2024-01-30T10:39:47;13.40;;;7.80;;
3341;SDS011;1684;50.748;6.154;2024-01-30T10:42:15;17.47;;;8.83;;
3341;SDS011;1684;50.748;6.154;2024-01-30T10:44:48;16.03;;;7.80;;
3341;SDS011;1684;50.748;6.154;2024-01-30T10:47:21;16.53;;;8.43;;
3341;SDS011;1684;50.748;6.154;2024-01-30T10:49:49;13.60;;;8.00;;
3341;SDS011;1684;50.748;6.154;2024-01-30T10:52:19;12.30;;;9.00;;
3341;SDS011;1684;50.748;6.154;2024-01-30T10:54:48;13.60;;;7.30;;
3341;SDS011;1684;50.748;6.154;2024-01-30T10:57:18;12.80;;;7.00;;
3341;SDS011;1684;50.748;6.154;2024-01-30T10:59:47;12.60;;;7.57;;
3341;SDS011;1684;50.748;6.154;2024-01-30T11:02:16;16.90;;;8.60;;
3341;SDS011;1684;50.748;6.154;2024-01-30T11:04:45;14.50;;;7.03;;
3341;SDS011;1684;50.748;6.154;2024-01-30T11:07:14;11.40;;;6.80;;
3341;SDS011;1684;50.748;6.154;2024-01-30T11:09:49;14.40;;;7.90;;
3341;SDS011;1684;50.748;6.154;2024-01-30T11:12:21;15.33;;;7.70;;
3341;SDS011;1684;50.748;6.154;2024-01-30T11:14:51;11.60;;;7.13;;
3341;SDS011;1684;50.748;6.154;2024-01-30T11:17:39;15.83;;;7.30;;
3341;SDS011;1684;50.748;6.154;2024-01-30T11:20:09;16.23;;;7.07;;
3341;SDS011;1684;50.748;6.154;2024-01-30T11:22:38;14.50;;;8.40;;
3341;SDS011;1684;50.748;6.154;2024-01-30T11:25:11;19.13;;;8.70;;
3341;SDS011;1684;50.748;6.154;2024-01-30T11:27:39;13.73;;;8.00;;
3341;SDS011;1684;50.748;6.154;2024-01-30T11:30:10;18.07;;;7.37;;
3341;SDS011;1684;50.748;6.154;2024-01-30T11:32:41;13.10;;;7.67;;
3341;SDS011;1684;50.748;6.154;2024-01-30T11:35:10;16.20;;;9.20;;
3341;SDS011;1684;50.748;6.154;2024-01-30T11:37:39;16.30;;;7.43;;
3341;SDS011;1684;50.748;6.154;2024-01-30T11:40:07;22.53;;;9.00;;
3341;SDS011;1684;50.748;6.154;2024-01-30T11:42:36;16.13;;;8.43;;
3341;SDS011;1684;50.748;6.154;2024-01-30T11:45:06;20.90;;;9.63;;
3341;SDS011;1684;50.748;6.154;2024-01-30T11:47:36;19.23;;;9.10;;
3341;SDS011;1684;50.748;6.154;2024-01-30T11:50:09;16.50;;;8.03;;
3341;SDS011;1684;50.748;6.154;2024-01-30T11:52:38;16.60;;;9.27;;
3341;SDS011;1684;50.748;6.154;2024-01-30T11:55:07;21.17;;;8.47;;
3341;SDS011;1684;50.748;6.154;2024-01-30T11:57:38;12.07;;;7.83;;
3341;SDS011;1684;50.748;6.154;2024-01-30T12:00:13;16.63;;;7.70;;
3341;SDS011;1684;50.748;6.154;2024-01-30T12:02:43;13.97;;;7.80;;
3341;SDS011;1684;50.748;6.154;2024-01-30T12:05:12;15.90;;;7.50;;
3341;SDS011;1684;50.748;6.154;2024-01-30T12:07:40;16.37;;;7.20;;
3341;SDS011;1684;50.748;6.154;2024-01-30T12:10:12;13.73;;;7.50;;
3341;SDS011;1684;50.748;6.154;2024-01-30T12:12:41;12.63;;;7.50;;
3341;SDS011;1684;50.748;6.154;2024-01-30T12:15:10;14.83;;;7.57;;
3341;SDS011;1684;50.748;6.154;2024-01-30T12:17:41;19.63;;;7.60;;
3341;SDS011;1684;50.748;6.154;2024-01-30T12:20:12;13.70;;;7.70;;
3341;SDS011;1684;50.748;6.154;2024-01-30T12:22:41;14.23;;;8.60;;
3341;SDS011;1684;50.748;6.154;2024-01-30T12:25:09;16.23;;;9.10;;
3341;SDS011;1684;50.748;6.154;2024-01-30T12:27:38;13.33;;;7.90;;
3341;SDS011;1684;50.748;6.154;2024-01-30T12:30:07;10.53;;;7.70;;
3341;SDS011;1684;50.748;6.154;2024-01-30T12:32:36;12.67;;;7.27;;
3341;SDS011;1684;50.748;6.154;2024-01-30T12:35:07;16.93;;;10.03;;
3341;SDS011;1684;50.748;6.154;2024-01-30T12:37:37;12.60;;;7.07;;
3341;SDS011;1684;50.748;6.154;2024-01-30T12:40:06;16.00;;;8.10;;
3341;SDS011;1684;50.748;6.154;2024-01-30T12:42:35;13.00;;;7.80;;
3341;SDS011;1684;50.748;6.154;2024-01-30T12:45:04;14.43;;;8.67;;
3341;SDS011;1684;50.748;6.154;2024-01-30T12:47:32;12.50;;;7.07;;
3341;SDS011;1684;50.748;6.154;2024-01-30T12:50:01;12.67;;;8.27;;
3341;SDS011;1684;50.748;6.154;2024-01-30T12:52:30;14.27;;;8.10;;
3341;SDS011;1684;50.748;6.154;2024-01-30T12:55:00;15.67;;;8.00;;
3341;SDS011;1684;50.748;6.154;2024-01-30T12:57:30;14.00;;;7.90;;
3341;SDS011;1684;50.748;6.154;2024-01-30T12:59:58;14.50;;;8.87;;
3341;SDS011;1684;50.748;6.154;2024-01-30T13:02:26;15.47;;;9.60;;
3341;SDS011;1684;50.748;6.154;2024-01-30T13:05:01;14.67;;;7.90;;
3341;SDS011;1684;50.748;6.154;2024-01-30T13:07:30;14.87;;;8.63;;
3341;SDS011;1684;50.748;6.154;2024-01-30T13:09:59;21.33;;;8.83;;
3341;SDS011;1684;50.748;6.154;2024-01-30T13:12:30;14.90;;;8.20;;
3341;SDS011;1684;50.748;6.154;2024-01-30T13:15:00;14.83;;;10.00;;
3341;SDS011;1684;50.748;6.154;2024-01-30T13:17:30;16.17;;;9.67;;
3341;SDS011;1684;50.748;6.154;2024-01-30T13:19:58;12.83;;;8.37;;
3341;SDS011;1684;50.748;6.154;2024-01-30T13:22:36;14.10;;;7.80;;
3341;SDS011;1684;50.748;6.154;2024-01-30T13:25:07;16.30;;;8.70;;
3341;SDS011;1684;50.748;6.154;2024-01-30T13:27:36;15.27;;;8.13;;
3341;SDS011;1684;50.748;6.154;2024-01-30T13:30:06;15.13;;;8.67;;
3341;SDS011;1684;50.748;6.154;2024-01-30T13:32:35;17.83;;;9.20;;
3341;SDS011;1684;50.748;6.154;2024-01-30T13:35:04;16.57;;;9.43;;
3341;SDS011;1684;50.748;6.154;2024-01-30T13:37:33;15.57;;;9.10;;
3341;SDS011;1684;50.748;6.154;2024-01-30T13:40:02;15.60;;;8.50;;
3341;SDS011;1684;50.748;6.154;2024-01-30T13:42:38;16.90;;;9.10;;
3341;SDS011;1684;50.748;6.154;2024-01-30T13:45:06;14.10;;;7.50;;
3341;SDS011;1684;50.748;6.154;2024-01-30T13:47:37;16.30;;;9.53;;
3341;SDS011;1684;50.748;6.154;2024-01-30T13:50:05;19.13;;;10.00;;
3341;SDS011;1684;50.748;6.154;2024-01-30T13:52:35;15.53;;;8.33;;
3341;SDS011;1684;50.748;6.154;2024-01-30T13:55:10;14.57;;;8.33;;
3341;SDS011;1684;50.748;6.154;2024-01-30T13:57:40;19.03;;;8.80;;
3341;SDS011;1684;50.748;6.154;2024-01-30T14:00:09;12.20;;;8.73;;
3341;SDS011;1684;50.748;6.154;2024-01-30T14:02:38;17.33;;;9.70;;
3341;SDS011;1684;50.748;6.154;2024-01-30T14:05:06;18.10;;;9.27;;
3341;SDS011;1684;50.748;6.154;2024-01-30T14:07:36;15.53;;;9.23;;
3341;SDS011;1684;50.748;6.154;2024-01-30T14:10:06;17.97;;;9.63;;
3341;SDS011;1684;50.748;6.154;2024-01-30T14:12:41;15.80;;;9.93;;
3341;SDS011;1684;50.748;6.154;2024-01-30T14:15:10;18.10;;;9.03;;
3341;SDS011;1684;50.748;6.154;2024-01-30T14:17:53;14.60;;;9.10;;
3341;SDS011;1684;50.748;6.154;2024-01-30T14:20:22;16.47;;;10.17;;
3341;SDS011;1684;50.748;6.154;2024-01-30T14:22:51;19.20;;;9.43;;
3341;SDS011;1684;50.748;6.154;2024-01-30T14:25:22;17.20;;;10.07;;
3341;SDS011;1684;50.748;6.154;2024-01-30T14:27:51;13.17;;;8.60;;
3341;SDS011;1684;50.748;6.154;2024-01-30T14:30:20;15.53;;;11.00;;
3341;SDS011;1684;50.748;6.154;2024-01-30T14:32:48;20.43;;;10.30;;
3341;SDS011;1684;50.748;6.154;2024-01-30T14:35:17;15.30;;;9.33;;
3341;SDS011;1684;50.748;6.154;2024-01-30T14:37:46;14.27;;;9.27;;
3341;SDS011;1684;50.748;6.154;2024-01-30T14:40:14;18.60;;;11.30;;
3341;SDS011;1684;50.748;6.154;2024-01-30T14:42:43;17.53;;;9.70;;
3341;SDS011;1684;50.748;6.154;2024-01-30T14:45:13;22.23;;;10.40;;
3341;SDS011;1684;50.748;6.154;2024-01-30T14:47:42;16.00;;;10.73;;
3341;SDS011;1684;50.748;6.154;2024-01-30T14:50:11;20.50;;;10.40;;
3341;SDS011;1684;50.748;6.154;2024-01-30T14:52:39;15.47;;;9.20;;
3341;SDS011;1684;50.748;6.154;2024-01-30T14:55:07;14.70;;;10.70;;
3341;SDS011;1684;50.748;6.154;2024-01-30T14:57:36;18.70;;;11.33;;
3341;SDS011;1684;50.748;6.154;2024-01-30T15:00:05;15.97;;;9.57;;
3341;SDS011;1684;50.748;6.154;2024-01-30T15:02:35;15.03;;;9.77;;
3341;SDS011;1684;50.748;6.154;2024-01-30T15:05:03;22.80;;;8.37;;
3341;SDS011;1684;50.748;6.154;2024-01-30T15:07:32;15.07;;;8.57;;
3341;SDS011;1684;50.748;6.154;2024-01-30T15:10:06;12.07;;;7.97;;
3341;SDS011;1684;50.748;6.154;2024-01-30T15:12:35;18.50;;;10.20;;
3341;SDS011;1684;50.748;6.154;2024-01-30T15:15:04;12.07;;;6.60;;